sensor_id;sensor_type;location;lat;lon;timestamp;pressure;altitude;pressure_sealevel;temperature;humidity
498;BME280;39559;48.630;9.162;2023-08-12T00:01:44;97789.03;;;16.30;100.00
498;BME280;39559;48.630;9.162;2023-08-12T00:04:10;97781.06;;;16.18;100.00
498;BME280;39559;48.630;9.162;2023-08-12T00:06:40;97785.72;;;15.98;100.00
498;BME280;39559;48.630;9.162;2023-08-12T00:09:08;97779.66;;;15.98;100.00
498;BME280;39559;48.630;9.162;2023-08-12T00:11:35;97775.25;;;15.98;100.00
498;BME280;39559;48.630;9.162;2023-08-12T00:14:02;97761.56;;;15.93;100.00
498;BME280;39559;48.630;9.162;2023-08-12T00:18:24;97762.34;;;16.09;100.00
498;BME280;39559;48.630;9.162;2023-08-12T00:20:50;97759.63;;;16.11;100.00
498;BME280;39559;48.630;9.162;2023-08-12T00:23:18;97756.91;;;16.12;100.00
498;BME280;39559;48.630;9.162;2023-08-12T00:25:45;97756.34;;;16.07;100.00
498;BME280;39559;48.630;9.162;2023-08-12T00:28:17;97753.91;;;16.04;100.00
498;BME280;39559;48.630;9.162;2023-08-12T00:30:43;97751.66;;;15.98;100.00
498;BME280;39559;48.630;9.162;2023-08-12T00:33:08;97748.47;;;15.93;100.00
498;BME280;39559;48.630;9.162;2023-08-12T00:35:34;97741.56;;;15.78;100.00
498;BME280;39559;48.630;9.162;2023-08-12T00:37:59;97741.28;;;15.97;100.00
498;BME280;39559;48.630;9.162;2023-08-12T00:42:17;97739.97;;;15.89;100.00
498;BME280;39559;48.630;9.162;2023-08-12T00:44:42;97740.03;;;15.88;100.00
498;BME280;39559;48.630;9.162;2023-08-12T00:47:08;97738.38;;;15.87;100.00
498;BME280;39559;48.630;9.162;2023-08-12T00:49:34;97736.78;;;15.84;100.00
498;BME280;39559;48.630;9.162;2023-08-12T00:52:00;97734.34;;;15.81;100.00
498;BME280;39559;48.630;9.162;2023-08-12T00:54:27;97744.84;;;15.65;100.00
498;BME280;39559;48.630;9.162;2023-08-12T00:56:53;97743.06;;;15.66;100.00
498;BME280;39559;48.630;9.162;2023-08-12T00:59:19;97737.66;;;15.69;100.00
498;BME280;39559;48.630;9.162;2023-08-12T01:01:46;97736.09;;;15.66;100.00
498;BME280;39559;48.630;9.162;2023-08-12T01:06:12;97733.97;;;15.57;100.00
498;BME280;39559;48.630;9.162;2023-08-12T01:08:38;97734.47;;;15.64;100.00
498;BME280;39559;48.630;9.162;2023-08-12T01:11:26;97732.03;;;15.61;100.00
498;BME280;39559;48.630;9.162;2023-08-12T01:16:33;97723.13;;;15.49;100.00
498;BME280;39559;48.630;9.162;2023-08-12T01:19:09;97725.47;;;15.39;100.00
498;BME280;39559;48.630;9.162;2023-08-12T01:21:36;97720.09;;;15.41;100.00
498;BME280;39559;48.630;9.162;2023-08-12T01:24:06;97718.06;;;15.46;100.00
498;BME280;39559;48.630;9.162;2023-08-12T01:26:32;97716.97;;;15.50;100.00
498;BME280;39559;48.630;9.162;2023-08-12T01:30:07;97711.75;;;15.50;100.00
498;BME280;39559;48.630;9.162;2023-08-12T01:32:45;97709.94;;;15.36;100.00
498;BME280;39559;48.630;9.162;2023-08-12T01:35:24;97709.09;;;15.35;100.00
498;BME280;39559;48.630;9.162;2023-08-12T01:37:53;97706.22;;;15.24;100.00
498;BME280;39559;48.630;9.162;2023-08-12T01:40:20;97713.34;;;15.22;100.00
498;BME280;39559;48.630;9.162;2023-08-12T01:42:47;97700.66;;;15.30;100.00
498;BME280;39559;48.630;9.162;2023-08-12T01:45:13;97695.50;;;15.29;100.00
498;BME280;39559;48.630;9.162;2023-08-12T01:47:43;97693.44;;;15.20;100.00
498;BME280;39559;48.630;9.162;2023-08-12T01:50:08;97696.81;;;15.22;100.00
498;BME280;39559;48.630;9.162;2023-08-12T01:54:02;97697.09;;;15.31;100.00
498;BME280;39559;48.630;9.162;2023-08-12T01:56:28;97703.63;;;15.24;100.00
498;BME280;39559;48.630;9.162;2023-08-12T01:58:53;97705.47;;;15.22;100.00
498;BME280;39559;48.630;9.162;2023-08-12T02:01:19;97693.94;;;15.26;100.00
498;BME280;39559;48.630;9.162;2023-08-12T02:03:45;97703.19;;;15.32;100.00
498;BME280;39559;48.630;9.162;2023-08-12T02:06:10;97700.84;;;15.27;100.00
498;BME280;39559;48.630;9.162;2023-08-12T02:08:36;97705.53;;;15.36;100.00
498;BME280;39559;48.630;9.162;2023-08-12T02:11:01;97699.16;;;15.41;100.00
498;BME280;39559;48.630;9.162;2023-08-12T02:13:27;97701.13;;;15.37;100.00
498;BME280;39559;48.630;9.162;2023-08-12T02:17:57;97700.69;;;15.45;100.00
498;BME280;39559;48.630;9.162;2023-08-12T02:20:24;97698.84;;;15.47;100.00
498;BME280;39559;48.630;9.162;2023-08-12T02:22:50;97689.28;;;15.46;100.00
498;BME280;39559;48.630;9.162;2023-08-12T02:25:15;97683.03;;;15.48;100.00
498;BME280;39559;48.630;9.162;2023-08-12T02:27:41;97693.19;;;15.39;100.00
498;BME280;39559;48.630;9.162;2023-08-12T02:30:07;97693.69;;;15.45;100.00
498;BME280;39559;48.630;9.162;2023-08-12T02:32:33;97690.41;;;15.42;100.00
498;BME280;39559;48.630;9.162;2023-08-12T02:34:58;97677.69;;;15.35;100.00
498;BME280;39559;48.630;9.162;2023-08-12T02:37:24;97684.41;;;15.40;100.00
498;BME280;39559;48.630;9.162;2023-08-12T02:41:53;97680.66;;;15.29;100.00
498;BME280;39559;48.630;9.162;2023-08-12T02:44:18;97669.47;;;15.42;100.00
498;BME280;39559;48.630;9.162;2023-08-12T02:46:44;97676.28;;;15.44;100.00
498;BME280;39559;48.630;9.162;2023-08-12T02:49:09;97669.44;;;15.27;100.00
498;BME280;39559;48.630;9.162;2023-08-12T02:51:35;97663.28;;;15.28;100.00
498;BME280;39559;48.630;9.162;2023-08-12T02:54:00;97664.75;;;15.18;100.00
498;BME280;39559;48.630;9.162;2023-08-12T02:56:26;97664.59;;;15.35;100.00
498;BME280;39559;48.630;9.162;2023-08-12T02:58:52;97668.34;;;15.46;100.00
498;BME280;39559;48.630;9.162;2023-08-12T03:01:18;97668.81;;;15.38;100.00
498;BME280;39559;48.630;9.162;2023-08-12T03:05:48;97666.84;;;15.42;100.00
498;BME280;39559;48.630;9.162;2023-08-12T03:08:14;97662.84;;;15.50;100.00
498;BME280;39559;48.630;9.162;2023-08-12T03:10:40;97654.91;;;15.52;100.00
498;BME280;39559;48.630;9.162;2023-08-12T03:13:06;97658.44;;;15.51;100.00
498;BME280;39559;48.630;9.162;2023-08-12T03:16:04;97659.50;;;15.48;100.00
498;BME280;39559;48.630;9.162;2023-08-12T03:18:31;97664.72;;;15.48;100.00
498;BME280;39559;48.630;9.162;2023-08-12T03:20:58;97662.56;;;15.55;100.00
498;BME280;39559;48.630;9.162;2023-08-12T03:23:25;97670.63;;;15.66;100.00
498;BME280;39559;48.630;9.162;2023-08-12T03:25:52;97666.69;;;15.59;100.00
498;BME280;39559;48.630;9.162;2023-08-12T03:29:45;97668.34;;;15.46;100.00
498;BME280;39559;48.630;9.162;2023-08-12T03:32:12;97665.56;;;15.49;100.00
498;BME280;39559;48.630;9.162;2023-08-12T03:34:39;97664.06;;;15.59;100.00
498;BME280;39559;48.630;9.162;2023-08-12T03:37:05;97659.50;;;15.63;100.00
498;BME280;39559;48.630;9.162;2023-08-12T03:39:31;97651.19;;;15.70;100.00
498;BME280;39559;48.630;9.162;2023-08-12T03:41:56;97645.00;;;15.71;100.00
498;BME280;39559;48.630;9.162;2023-08-12T03:44:22;97647.81;;;15.68;100.00
498;BME280;39559;48.630;9.162;2023-08-12T03:46:48;97639.38;;;15.49;100.00
498;BME280;39559;48.630;9.162;2023-08-12T03:49:13;97637.16;;;15.43;100.00
498;BME280;39559;48.630;9.162;2023-08-12T03:53:39;97641.25;;;15.61;100.00
498;BME280;39559;48.630;9.162;2023-08-12T03:56:05;97634.41;;;15.59;100.00
498;BME280;39559;48.630;9.162;2023-08-12T03:58:30;97640.06;;;15.67;100.00
498;BME280;39559;48.630;9.162;2023-08-12T04:00:56;97644.06;;;15.72;100.00
498;BME280;39559;48.630;9.162;2023-08-12T04:03:21;97650.09;;;15.74;100.00
498;BME280;39559;48.630;9.162;2023-08-12T04:05:48;97648.13;;;15.78;100.00
498;BME280;39559;48.630;9.162;2023-08-12T04:08:15;97652.03;;;15.85;100.00
498;BME280;39559;48.630;9.162;2023-08-12T04:10:44;97651.69;;;15.77;100.00
498;BME280;39559;48.630;9.162;2023-08-12T04:13:10;97652.31;;;15.81;100.00
498;BME280;39559;48.630;9.162;2023-08-12T04:17:35;97646.31;;;15.93;100.00
498;BME280;39559;48.630;9.162;2023-08-12T04:20:01;97647.63;;;15.86;100.00
498;BME280;39559;48.630;9.162;2023-08-12T04:22:26;97653.34;;;15.92;100.00
498;BME280;39559;48.630;9.162;2023-08-12T04:24:53;97646.16;;;15.96;100.00
498;BME280;39559;48.630;9.162;2023-08-12T04:27:18;97650.91;;;15.89;100.00
498;BME280;39559;48.630;9.162;2023-08-12T04:29:45;97657.19;;;15.87;100.00
498;BME280;39559;48.630;9.162;2023-08-12T04:32:11;97649.59;;;15.97;100.00
498;BME280;39559;48.630;9.162;2023-08-12T04:34:37;97646.81;;;16.00;100.00
498;BME280;39559;48.630;9.162;2023-08-12T04:37:03;97657.09;;;15.88;100.00
498;BME280;39559;48.630;9.162;2023-08-12T04:41:31;97648.78;;;15.82;100.00
498;BME280;39559;48.630;9.162;2023-08-12T04:43:56;97641.38;;;15.88;100.00
498;BME280;39559;48.630;9.162;2023-08-12T04:46:22;97661.38;;;15.89;100.00
498;BME280;39559;48.630;9.162;2023-08-12T04:48:47;97661.94;;;15.95;100.00
498;BME280;39559;48.630;9.162;2023-08-12T04:51:13;97658.03;;;16.02;100.00
498;BME280;39559;48.630;9.162;2023-08-12T04:53:39;97645.94;;;16.14;100.00
498;BME280;39559;48.630;9.162;2023-08-12T04:56:05;97645.22;;;15.97;100.00
498;BME280;39559;48.630;9.162;2023-08-12T04:58:30;97655.31;;;16.03;100.00
498;BME280;39559;48.630;9.162;2023-08-12T05:00:56;97650.06;;;16.03;100.00
498;BME280;39559;48.630;9.162;2023-08-12T05:05:27;97621.28;;;15.74;100.00
498;BME280;39559;48.630;9.162;2023-08-12T05:07:52;97628.56;;;15.84;100.00
498;BME280;39559;48.630;9.162;2023-08-12T05:10:18;97636.97;;;16.03;100.00
498;BME280;39559;48.630;9.162;2023-08-12T05:12:43;97656.63;;;16.10;100.00
498;BME280;39559;48.630;9.162;2023-08-12T05:15:10;97660.63;;;16.16;100.00
498;BME280;39559;48.630;9.162;2023-08-12T05:17:36;97660.53;;;16.18;100.00
498;BME280;39559;48.630;9.162;2023-08-12T05:20:01;97669.25;;;16.04;100.00
498;BME280;39559;48.630;9.162;2023-08-12T05:22:27;97653.34;;;16.07;100.00
498;BME280;39559;48.630;9.162;2023-08-12T05:24:53;97649.84;;;16.21;100.00
498;BME280;39559;48.630;9.162;2023-08-12T05:29:22;97649.47;;;16.27;100.00
498;BME280;39559;48.630;9.162;2023-08-12T05:31:48;97652.91;;;16.42;100.00
498;BME280;39559;48.630;9.162;2023-08-12T05:34:13;97646.72;;;16.43;100.00
498;BME280;39559;48.630;9.162;2023-08-12T05:36:39;97652.41;;;16.49;100.00
498;BME280;39559;48.630;9.162;2023-08-12T05:39:04;97664.91;;;16.59;100.00
498;BME280;39559;48.630;9.162;2023-08-12T05:41:30;97659.16;;;16.54;100.00
498;BME280;39559;48.630;9.162;2023-08-12T05:43:56;97650.28;;;16.69;100.00
498;BME280;39559;48.630;9.162;2023-08-12T05:46:21;97655.50;;;16.83;100.00
498;BME280;39559;48.630;9.162;2023-08-12T05:48:47;97663.59;;;16.93;100.00
498;BME280;39559;48.630;9.162;2023-08-12T05:53:18;97680.78;;;16.84;100.00
498;BME280;39559;48.630;9.162;2023-08-12T05:55:44;97665.31;;;16.80;100.00
498;BME280;39559;48.630;9.162;2023-08-12T05:58:09;97656.34;;;16.84;100.00
498;BME280;39559;48.630;9.162;2023-08-12T06:00:35;97644.63;;;16.75;100.00
498;BME280;39559;48.630;9.162;2023-08-12T06:03:00;97648.25;;;16.60;100.00
498;BME280;39559;48.630;9.162;2023-08-12T06:05:26;97649.31;;;16.84;100.00
498;BME280;39559;48.630;9.162;2023-08-12T06:07:52;97664.59;;;17.05;100.00
498;BME280;39559;48.630;9.162;2023-08-12T06:10:17;97655.38;;;17.12;100.00
498;BME280;39559;48.630;9.162;2023-08-12T06:12:43;97656.13;;;17.14;100.00
498;BME280;39559;48.630;9.162;2023-08-12T06:17:13;97650.78;;;17.29;100.00
498;BME280;39559;48.630;9.162;2023-08-12T06:19:39;97650.59;;;17.44;100.00
498;BME280;39559;48.630;9.162;2023-08-12T06:22:06;97642.72;;;17.44;100.00
498;BME280;39559;48.630;9.162;2023-08-12T06:24:32;97656.16;;;17.53;100.00
498;BME280;39559;48.630;9.162;2023-08-12T06:27:00;97650.16;;;17.63;100.00
498;BME280;39559;48.630;9.162;2023-08-12T06:29:26;97651.72;;;17.79;100.00
498;BME280;39559;48.630;9.162;2023-08-12T06:31:52;97649.72;;;17.82;100.00
498;BME280;39559;48.630;9.162;2023-08-12T06:34:18;97645.84;;;17.88;100.00
498;BME280;39559;48.630;9.162;2023-08-12T06:36:43;97651.22;;;17.99;100.00
498;BME280;39559;48.630;9.162;2023-08-12T06:41:11;97640.47;;;18.02;100.00
498;BME280;39559;48.630;9.162;2023-08-12T06:43:36;97644.16;;;18.13;100.00
498;BME280;39559;48.630;9.162;2023-08-12T06:46:02;97638.41;;;18.32;100.00
498;BME280;39559;48.630;9.162;2023-08-12T06:48:47;97639.94;;;18.47;100.00
498;BME280;39559;48.630;9.162;2023-08-12T06:51:12;97638.72;;;18.64;100.00
498;BME280;39559;48.630;9.162;2023-08-12T06:53:39;97633.03;;;18.70;100.00
498;BME280;39559;48.630;9.162;2023-08-12T06:56:10;97631.13;;;18.96;100.00
498;BME280;39559;48.630;9.162;2023-08-12T06:58:36;97632.63;;;19.12;100.00
498;BME280;39559;48.630;9.162;2023-08-12T07:01:02;97639.22;;;19.29;100.00
498;BME280;39559;48.630;9.162;2023-08-12T07:05:10;97631.03;;;19.67;100.00
498;BME280;39559;48.630;9.162;2023-08-12T07:07:35;97630.94;;;19.80;100.00
498;BME280;39559;48.630;9.162;2023-08-12T07:10:01;97626.38;;;19.93;100.00
498;BME280;39559;48.630;9.162;2023-08-12T07:12:26;97624.22;;;20.10;100.00
498;BME280;39559;48.630;9.162;2023-08-12T07:14:52;97623.63;;;20.18;100.00
498;BME280;39559;48.630;9.162;2023-08-12T07:17:17;97624.66;;;20.26;100.00
498;BME280;39559;48.630;9.162;2023-08-12T07:19:43;97626.59;;;20.36;100.00
498;BME280;39559;48.630;9.162;2023-08-12T07:22:08;97622.34;;;20.44;100.00
498;BME280;39559;48.630;9.162;2023-08-12T07:24:34;97627.03;;;20.52;100.00
498;BME280;39559;48.630;9.162;2023-08-12T07:29:01;97617.25;;;20.75;100.00
498;BME280;39559;48.630;9.162;2023-08-12T07:31:27;97618.13;;;20.97;100.00
498;BME280;39559;48.630;9.162;2023-08-12T07:33:52;97616.56;;;21.15;100.00
498;BME280;39559;48.630;9.162;2023-08-12T07:36:18;97620.84;;;21.27;100.00
498;BME280;39559;48.630;9.162;2023-08-12T07:38:43;97623.69;;;21.36;100.00
498;BME280;39559;48.630;9.162;2023-08-12T07:41:09;97617.31;;;21.59;100.00
498;BME280;39559;48.630;9.162;2023-08-12T07:43:35;97619.53;;;21.85;100.00
498;BME280;39559;48.630;9.162;2023-08-12T07:46:00;97610.66;;;22.05;100.00
498;BME280;39559;48.630;9.162;2023-08-12T07:48:26;97610.34;;;22.30;100.00
498;BME280;39559;48.630;9.162;2023-08-12T07:52:57;97615.69;;;22.49;100.00
498;BME280;39559;48.630;9.162;2023-08-12T07:55:23;97609.00;;;22.65;100.00
498;BME280;39559;48.630;9.162;2023-08-12T07:57:48;97611.09;;;22.80;100.00
498;BME280;39559;48.630;9.162;2023-08-12T08:00:14;97607.75;;;22.98;100.00
498;BME280;39559;48.630;9.162;2023-08-12T08:02:40;97614.91;;;23.07;100.00
498;BME280;39559;48.630;9.162;2023-08-12T08:05:06;97610.28;;;23.29;100.00
498;BME280;39559;48.630;9.162;2023-08-12T08:07:32;97614.13;;;23.44;100.00
498;BME280;39559;48.630;9.162;2023-08-12T08:09:57;97610.97;;;23.68;100.00
498;BME280;39559;48.630;9.162;2023-08-12T08:12:23;97608.00;;;23.91;100.00
498;BME280;39559;48.630;9.162;2023-08-12T08:16:53;97609.97;;;23.89;100.00
498;BME280;39559;48.630;9.162;2023-08-12T08:19:19;97596.03;;;23.77;100.00
498;BME280;39559;48.630;9.162;2023-08-12T08:21:44;97606.84;;;23.56;100.00
498;BME280;39559;48.630;9.162;2023-08-12T08:24:10;97603.44;;;23.73;100.00
498;BME280;39559;48.630;9.162;2023-08-12T08:26:40;97610.38;;;23.94;100.00
498;BME280;39559;48.630;9.162;2023-08-12T08:29:06;97604.41;;;24.10;100.00
498;BME280;39559;48.630;9.162;2023-08-12T08:31:32;97609.09;;;24.26;100.00
498;BME280;39559;48.630;9.162;2023-08-12T08:33:57;97607.97;;;24.56;97.85
498;BME280;39559;48.630;9.162;2023-08-12T08:36:23;97612.13;;;24.95;94.80
498;BME280;39559;48.630;9.162;2023-08-12T08:40:50;97609.34;;;25.40;88.56
498;BME280;39559;48.630;9.162;2023-08-12T08:43:20;97610.88;;;25.25;90.72
498;BME280;39559;48.630;9.162;2023-08-12T08:45:47;97616.13;;;24.99;81.04
498;BME280;39559;48.630;9.162;2023-08-12T08:48:13;97613.88;;;25.04;90.03
498;BME280;39559;48.630;9.162;2023-08-12T08:50:39;97613.19;;;25.02;88.81
498;BME280;39559;48.630;9.162;2023-08-12T08:53:06;97609.75;;;25.54;94.52
498;BME280;39559;48.630;9.162;2023-08-12T08:55:32;97617.63;;;25.63;84.71
498;BME280;39559;48.630;9.162;2023-08-12T08:57:58;97615.50;;;25.93;87.45
498;BME280;39559;48.630;9.162;2023-08-12T09:00:24;97617.78;;;25.62;79.84
498;BME280;39559;48.630;9.162;2023-08-12T09:04:45;97625.53;;;26.08;87.70
498;BME280;39559;48.630;9.162;2023-08-12T09:07:12;97626.41;;;26.16;85.20
498;BME280;39559;48.630;9.162;2023-08-12T09:09:41;97619.81;;;26.29;82.53
498;BME280;39559;48.630;9.162;2023-08-12T09:12:09;97626.81;;;26.38;77.81
498;BME280;39559;48.630;9.162;2023-08-12T09:14:38;97626.09;;;26.28;76.29
498;BME280;39559;48.630;9.162;2023-08-12T09:17:04;97629.44;;;26.21;79.83
498;BME280;39559;48.630;9.162;2023-08-12T09:19:29;97630.19;;;25.79;78.04
498;BME280;39559;48.630;9.162;2023-08-12T09:21:55;97627.47;;;25.71;81.79
498;BME280;39559;48.630;9.162;2023-08-12T09:24:27;97619.34;;;25.73;84.20
498;BME280;39559;48.630;9.162;2023-08-12T09:28:39;97622.84;;;25.73;82.58
498;BME280;39559;48.630;9.162;2023-08-12T09:31:05;97620.97;;;25.65;81.83
498;BME280;39559;48.630;9.162;2023-08-12T09:33:31;97614.78;;;25.91;84.91
498;BME280;39559;48.630;9.162;2023-08-12T09:35:56;97622.78;;;25.91;82.54
498;BME280;39559;48.630;9.162;2023-08-12T09:38:22;97615.19;;;26.55;83.52
498;BME280;39559;48.630;9.162;2023-08-12T09:40:48;97619.34;;;26.41;82.33
498;BME280;39559;48.630;9.162;2023-08-12T09:43:13;97612.69;;;26.46;82.55
498;BME280;39559;48.630;9.162;2023-08-12T09:45:40;97607.50;;;26.44;87.35
498;BME280;39559;48.630;9.162;2023-08-12T09:48:06;97603.94;;;26.61;83.85
498;BME280;39559;48.630;9.162;2023-08-12T09:52:35;97590.63;;;26.78;82.86
498;BME280;39559;48.630;9.162;2023-08-12T09:55:02;97583.13;;;26.90;81.83
498;BME280;39559;48.630;9.162;2023-08-12T09:57:33;97581.94;;;26.68;79.11
498;BME280;39559;48.630;9.162;2023-08-12T10:00:00;97579.59;;;26.65;79.50
498;BME280;39559;48.630;9.162;2023-08-12T10:02:26;97580.72;;;26.54;81.54
498;BME280;39559;48.630;9.162;2023-08-12T10:04:53;97578.34;;;26.26;78.63
498;BME280;39559;48.630;9.162;2023-08-12T10:07:23;97569.03;;;26.22;77.63
498;BME280;39559;48.630;9.162;2023-08-12T10:09:49;97560.88;;;26.32;79.81
498;BME280;39559;48.630;9.162;2023-08-12T10:12:15;97565.88;;;26.35;79.24
498;BME280;39559;48.630;9.162;2023-08-12T10:16:30;97576.63;;;26.84;87.01
498;BME280;39559;48.630;9.162;2023-08-12T10:18:57;97577.44;;;26.68;80.99
498;BME280;39559;48.630;9.162;2023-08-12T10:21:23;97572.78;;;26.87;80.04
498;BME280;39559;48.630;9.162;2023-08-12T10:23:50;97563.31;;;26.84;81.88
498;BME280;39559;48.630;9.162;2023-08-12T10:26:17;97562.13;;;26.87;88.86
498;BME280;39559;48.630;9.162;2023-08-12T10:28:43;97569.97;;;26.88;84.06
498;BME280;39559;48.630;9.162;2023-08-12T10:31:11;97572.47;;;26.81;80.12
498;BME280;39559;48.630;9.162;2023-08-12T10:33:40;97570.13;;;26.87;87.65
498;BME280;39559;48.630;9.162;2023-08-12T10:36:07;97573.97;;;26.84;82.52
498;BME280;39559;48.630;9.162;2023-08-12T10:40:24;97575.81;;;26.84;82.18
498;BME280;39559;48.630;9.162;2023-08-12T10:42:50;97579.28;;;26.92;81.49
498;BME280;39559;48.630;9.162;2023-08-12T10:45:17;97593.59;;;27.16;88.45
498;BME280;39559;48.630;9.162;2023-08-12T10:48:09;97584.28;;;27.53;81.56
498;BME280;39559;48.630;9.162;2023-08-12T10:50:35;97584.75;;;27.48;86.58
498;BME280;39559;48.630;9.162;2023-08-12T10:53:28;97582.84;;;27.90;86.48
498;BME280;39559;48.630;9.162;2023-08-12T10:56:02;97572.22;;;27.65;79.26
498;BME280;39559;48.630;9.162;2023-08-12T10:58:36;97574.09;;;27.56;79.00
498;BME280;39559;48.630;9.162;2023-08-12T11:01:13;97578.81;;;27.38;75.19
498;BME280;39559;48.630;9.162;2023-08-12T11:04:19;97568.91;;;27.55;77.60
498;BME280;39559;48.630;9.162;2023-08-12T11:06:47;97574.75;;;27.58;78.73
498;BME280;39559;48.630;9.162;2023-08-12T11:09:13;97570.09;;;27.44;74.28
498;BME280;39559;48.630;9.162;2023-08-12T11:11:39;97564.66;;;27.29;79.86
498;BME280;39559;48.630;9.162;2023-08-12T11:14:11;97566.13;;;27.24;73.59
498;BME280;39559;48.630;9.162;2023-08-12T11:16:42;97564.00;;;27.27;75.85
498;BME280;39559;48.630;9.162;2023-08-12T11:19:08;97579.47;;;27.24;73.39
498;BME280;39559;48.630;9.162;2023-08-12T11:21:36;97568.28;;;27.45;73.00
498;BME280;39559;48.630;9.162;2023-08-12T11:24:02;97560.47;;;27.83;72.92
498;BME280;39559;48.630;9.162;2023-08-12T11:28:13;97565.19;;;28.20;73.83
498;BME280;39559;48.630;9.162;2023-08-12T11:30:41;97557.91;;;28.37;66.73
498;BME280;39559;48.630;9.162;2023-08-12T11:33:07;97543.44;;;28.78;71.15
498;BME280;39559;48.630;9.162;2023-08-12T11:35:34;97548.41;;;28.34;67.51
498;BME280;39559;48.630;9.162;2023-08-12T11:37:59;97545.41;;;28.06;67.02
498;BME280;39559;48.630;9.162;2023-08-12T11:40:26;97533.47;;;27.86;65.97
498;BME280;39559;48.630;9.162;2023-08-12T11:42:54;97535.78;;;27.89;69.64
498;BME280;39559;48.630;9.162;2023-08-12T11:45:22;97531.97;;;27.91;70.11
498;BME280;39559;48.630;9.162;2023-08-12T11:47:49;97516.13;;;27.82;70.81
498;BME280;39559;48.630;9.162;2023-08-12T11:52:09;97504.13;;;28.63;78.39
498;BME280;39559;48.630;9.162;2023-08-12T11:54:36;97497.94;;;29.24;75.46
498;BME280;39559;48.630;9.162;2023-08-12T11:57:02;97494.81;;;29.20;65.15
498;BME280;39559;48.630;9.162;2023-08-12T11:59:28;97505.59;;;29.57;66.38
498;BME280;39559;48.630;9.162;2023-08-12T12:01:54;97511.06;;;29.78;65.26
498;BME280;39559;48.630;9.162;2023-08-12T12:04:20;97526.22;;;30.08;59.04
498;BME280;39559;48.630;9.162;2023-08-12T12:06:47;97527.88;;;30.09;57.86
498;BME280;39559;48.630;9.162;2023-08-12T12:09:15;97539.53;;;29.41;57.41
498;BME280;39559;48.630;9.162;2023-08-12T12:11:44;97547.00;;;28.93;61.86
498;BME280;39559;48.630;9.162;2023-08-12T12:16:02;97563.50;;;28.19;61.06
498;BME280;39559;48.630;9.162;2023-08-12T12:18:28;97564.97;;;27.99;61.72
498;BME280;39559;48.630;9.162;2023-08-12T12:20:58;97569.34;;;27.75;61.77
498;BME280;39559;48.630;9.162;2023-08-12T12:23:31;97570.56;;;27.56;65.02
498;BME280;39559;48.630;9.162;2023-08-12T12:26:03;97574.78;;;27.34;65.49
498;BME280;39559;48.630;9.162;2023-08-12T12:28:29;97583.63;;;27.18;72.31
498;BME280;39559;48.630;9.162;2023-08-12T12:30:54;97603.06;;;25.76;92.75
498;BME280;39559;48.630;9.162;2023-08-12T12:33:20;97594.56;;;25.20;94.22
498;BME280;39559;48.630;9.162;2023-08-12T12:35:46;97597.63;;;24.71;100.00
498;BME280;39559;48.630;9.162;2023-08-12T12:39:56;97654.44;;;24.05;100.00
498;BME280;39559;48.630;9.162;2023-08-12T12:42:22;97710.69;;;23.22;100.00
498;BME280;39559;48.630;9.162;2023-08-12T12:44:47;97710.84;;;21.99;100.00
498;BME280;39559;48.630;9.162;2023-08-12T12:47:13;97715.09;;;21.27;100.00
498;BME280;39559;48.630;9.162;2023-08-12T12:49:41;97716.91;;;20.94;100.00
498;BME280;39559;48.630;9.162;2023-08-12T12:52:07;97695.47;;;20.53;100.00
498;BME280;39559;48.630;9.162;2023-08-12T12:54:32;97695.75;;;20.50;100.00
498;BME280;39559;48.630;9.162;2023-08-12T12:56:58;97697.75;;;20.58;100.00
498;BME280;39559;48.630;9.162;2023-08-12T12:59:24;97707.97;;;20.51;100.00
498;BME280;39559;48.630;9.162;2023-08-12T13:03:49;97708.94;;;20.28;100.00
498;BME280;39559;48.630;9.162;2023-08-12T13:06:15;97714.00;;;20.08;100.00
498;BME280;39559;48.630;9.162;2023-08-12T13:08:40;97692.03;;;19.97;100.00
498;BME280;39559;48.630;9.162;2023-08-12T13:11:06;97693.59;;;19.88;100.00
498;BME280;39559;48.630;9.162;2023-08-12T13:13:32;97692.03;;;19.74;100.00
498;BME280;39559;48.630;9.162;2023-08-12T13:15:57;97698.69;;;19.67;100.00
498;BME280;39559;48.630;9.162;2023-08-12T13:18:23;97710.16;;;19.54;100.00
498;BME280;39559;48.630;9.162;2023-08-12T13:20:48;97696.00;;;19.44;100.00
498;BME280;39559;48.630;9.162;2023-08-12T13:23:14;97708.34;;;19.55;100.00
498;BME280;39559;48.630;9.162;2023-08-12T13:27:43;97695.78;;;19.59;100.00
498;BME280;39559;48.630;9.162;2023-08-12T13:30:08;97682.41;;;19.62;100.00
498;BME280;39559;48.630;9.162;2023-08-12T13:32:37;97680.00;;;19.70;100.00
498;BME280;39559;48.630;9.162;2023-08-12T13:35:03;97682.69;;;19.81;100.00
498;BME280;39559;48.630;9.162;2023-08-12T13:37:29;97680.41;;;19.88;100.00
498;BME280;39559;48.630;9.162;2023-08-12T13:39:55;97678.63;;;20.00;100.00
498;BME280;39559;48.630;9.162;2023-08-12T13:42:20;97669.28;;;20.18;100.00
498;BME280;39559;48.630;9.162;2023-08-12T13:44:46;97659.41;;;20.54;100.00
498;BME280;39559;48.630;9.162;2023-08-12T13:47:12;97656.06;;;20.96;100.00
498;BME280;39559;48.630;9.162;2023-08-12T13:51:36;97656.88;;;21.50;100.00
498;BME280;39559;48.630;9.162;2023-08-12T13:54:02;97653.19;;;21.62;100.00
498;BME280;39559;48.630;9.162;2023-08-12T13:56:27;97654.56;;;21.56;100.00
498;BME280;39559;48.630;9.162;2023-08-12T13:58:53;97644.38;;;21.52;100.00
498;BME280;39559;48.630;9.162;2023-08-12T14:01:19;97631.63;;;21.36;100.00
498;BME280;39559;48.630;9.162;2023-08-12T14:03:44;97633.16;;;21.38;100.00
498;BME280;39559;48.630;9.162;2023-08-12T14:06:10;97619.47;;;21.33;100.00
498;BME280;39559;48.630;9.162;2023-08-12T14:08:35;97613.13;;;21.15;100.00
498;BME280;39559;48.630;9.162;2023-08-12T14:11:01;97595.41;;;21.05;100.00
498;BME280;39559;48.630;9.162;2023-08-12T14:15:30;97581.41;;;21.57;100.00
498;BME280;39559;48.630;9.162;2023-08-12T14:17:55;97580.59;;;21.66;100.00
498;BME280;39559;48.630;9.162;2023-08-12T14:20:21;97571.81;;;21.87;100.00
498;BME280;39559;48.630;9.162;2023-08-12T14:22:46;97572.78;;;21.55;100.00